Time;durP1;ratioP1;P1;durP2;ratioP2;P2;SDS_P1;SDS_P2;PMS_P1;PMS_P2;Temp;Humidity;BMP_temperature;BMP_pressure;BME280_temperature;BME280_humidity;BME280_pressure;Samples;Min_cycle;Max_cycle;Signal;HPM_P1;HPM_P2
2020/12/24 03:44:02;;;;;;;;;;;;;;;;;;;;;
2020/12/24 04:26:04;;;;;;;;;;;;;;;;;;;;;
2020/12/24 04:34:00;;;;;;;;;;;;;;;;;;;;;
2020/12/24 04:36:57;;;;;;;2.85;0.90;;;11.50;99.90;;;;;;6133657;23;20594;-79
2020/12/24 04:39:28;;;;;;;2.92;0.88;;;11.50;99.90;;;;;;6155058;23;20158;-80
2020/12/24 04:42:02;;;;;;;3.78;0.73;;;11.50;99.90;;;;;;6109118;23;20487;-79
2020/12/24 04:44:35;;;;;;;3.78;1.58;;;11.50;99.90;;;;;;6131597;23;20237;-79
2020/12/24 04:47:21;;;;;;;3.10;0.60;;;11.50;99.90;;;;;;6133710;23;20201;-79
2020/12/24 04:50:01;;;;;;;2.20;0.60;;;11.50;99.90;;;;;;6133515;23;20130;-79
2020/12/24 04:52:37;;;;;;;3.25;0.80;;;11.50;99.90;;;;;;6182902;23;20133;-79
2020/12/24 04:55:18;;;;;;;2.53;1.02;;;11.50;99.90;;;;;;6134685;23;20623;-79
2020/12/24 04:57:48;;;;;;;7.20;1.10;;;11.50;99.90;;;;;;6131027;23;20488;-78
2020/12/24 05:00:45;;;;;;;4.45;0.85;;;11.40;99.90;;;;;;6159139;23;20209;-79
2020/12/24 05:03:19;;;;;;;2.55;0.73;;;11.40;99.90;;;;;;6156402;23;20180;-79
2020/12/24 05:05:57;;;;;;;3.35;0.70;;;11.40;99.90;;;;;;6156263;23;20547;-79
2020/12/24 05:08:30;;;;;;;2.45;1.20;;;11.40;99.90;;;;;;6155564;23;20579;-79
2020/12/24 05:11:17;;;;;;;;;;;;;;;;;;;;;
2020/12/24 05:14:13;;;;;;;3.97;1.00;;;11.40;99.90;;;;;;6155859;23;20178;-79
2020/12/24 05:17:06;;;;;;;4.43;1.00;;;11.40;99.90;;;;;;6155353;23;20611;-79
2020/12/24 05:19:48;;;;;;;2.40;0.70;;;11.40;99.90;;;;;;6108023;23;20150;-79
2020/12/24 05:22:23;;;;;;;2.33;0.70;;;11.40;99.90;;;;;;6182271;23;20168;-79
2020/12/24 05:25:19;;;;;;;3.55;0.95;;;11.40;99.90;;;;;;6114718;23;20189;-79
2020/12/24 05:27:59;;;;;;;4.75;0.85;;;11.50;99.90;;;;;;6179983;23;20161;-79
2020/12/24 05:30:46;;;;;;;;;;;;;;;;;;;;;
2020/12/24 05:33:41;;;;;;;3.25;0.70;;;11.50;99.90;;;;;;6157370;23;20153;-77
2020/12/24 05:36:23;;;;;;;6.07;0.90;;;11.50;99.90;;;;;;6156775;23;20739;-78
2020/12/24 05:39:00;;;;;;;;;;;;;;;;;;;;;
2020/12/24 05:41:40;;;;;;;2.60;0.65;;;11.50;99.90;;;;;;6131275;23;20236;-79
2020/12/24 05:44:15;;;;;;;3.13;1.23;;;11.50;99.90;;;;;;6132449;23;20220;-77
2020/12/24 05:47:03;;;;;;;2.92;0.88;;;11.50;99.90;;;;;;6155794;23;20205;-78
2020/12/24 05:49:41;;;;;;;2.50;0.80;;;11.50;99.90;;;;;;6155258;23;20232;-78
2020/12/24 05:52:15;;;;;;;3.92;0.98;;;11.50;99.90;;;;;;6133939;23;20137;-79
2020/12/24 05:55:00;;;;;;;;;;;;;;;;;;;;;
2020/12/24 05:57:35;;;;;;;2.70;0.73;;;11.50;99.90;;;;;;6130118;23;20229;-78
2020/12/24 06:00:40;;;;;;;2.95;0.82;;;11.60;99.90;;;;;;6109149;23;20160;-78
2020/12/24 06:03:14;;;;;;;3.05;0.95;;;11.50;99.90;;;;;;6179726;23;20156;-78
2020/12/24 06:05:44;;;;;;;1.92;0.70;;;11.60;99.90;;;;;;6105657;23;20264;-78
2020/12/24 06:08:17;;;;;;;3.20;1.25;;;11.60;99.90;;;;;;6129626;23;20489;-78
2020/12/24 06:10:46;;;;;;;3.42;1.25;;;11.60;99.90;;;;;;6154101;23;20254;-78
2020/12/24 06:13:32;;;;;;;3.70;0.90;;;11.60;99.90;;;;;;6181129;23;20150;-78
2020/12/24 06:16:03;;;;;;;5.53;0.77;;;11.50;99.90;;;;;;6129462;23;20161;-77
2020/12/24 06:18:32;;;;;;;1.88;0.70;;;11.50;99.90;;;;;;6154213;23;20138;-78
2020/12/24 06:21:02;;;;;;;2.25;0.75;;;11.50;99.90;;;;;;6180253;23;20765;-78
2020/12/24 06:23:33;;;;;;;3.53;0.90;;;11.50;99.90;;;;;;6154293;23;20141;-78
2020/12/24 06:26:03;;;;;;;3.42;0.75;;;11.50;99.90;;;;;;6154744;23;20244;-78
2020/12/24 06:28:32;;;;;;;3.97;0.70;;;11.50;99.90;;;;;;6180555;23;20591;-78
2020/12/24 06:30:59;;;;;;;1.90;0.70;;;11.40;99.90;;;;;;6181263;23;20542;-79
2020/12/24 06:33:30;;;;;;;2.85;0.70;;;11.40;99.90;;;;;;6180231;23;20157;-79
2020/12/24 06:35:57;;;;;;;2.83;0.90;;;11.40;99.90;;;;;;6153960;23;20158;-77
2020/12/24 06:38:46;;;;;;;1.92;0.70;;;11.40;99.90;;;;;;6129659;23;20154;-78
2020/12/24 06:41:23;;;;;;;2.05;0.57;;;11.30;99.90;;;;;;6182512;23;20243;-78
2020/12/24 06:43:49;;;;;;;3.30;0.60;;;11.40;99.90;;;;;;6156187;23;20168;-77
2020/12/24 06:46:15;;;;;;;1.75;0.70;;;11.30;99.90;;;;;;6182797;23;20180;-79
2020/12/24 06:48:41;;;;;;;1.42;0.60;;;11.30;99.90;;;;;;6182976;23;20145;-78
2020/12/24 06:51:07;;;;;;;1.80;0.70;;;11.40;99.90;;;;;;6183973;23;20204;-79
2020/12/24 06:53:34;;;;;;;3.80;0.70;;;11.40;99.90;;;;;;6183610;23;20766;-78
2020/12/24 06:56:16;;;;;;;1.95;0.82;;;11.40;99.90;;;;;;6133229;23;20959;-79
2020/12/24 06:58:46;;;;;;;1.02;0.50;;;11.40;99.90;;;;;;6182320;23;20219;-79
2020/12/24 07:01:23;;;;;;;6.25;0.57;;;11.40;99.90;;;;;;6156792;23;20146;-79
2020/12/24 07:03:51;;;;;;;5.00;0.77;;;11.40;99.90;;;;;;6156830;23;20227;-79
2020/12/24 07:06:41;;;;;;;1.40;0.60;;;11.40;99.90;;;;;;6188644;23;20225;-79
2020/12/24 07:09:08;;;;;;;2.85;0.70;;;11.40;99.90;;;;;;6158545;23;20145;-79
2020/12/24 07:11:47;;;;;;;5.07;0.70;;;11.40;99.90;;;;;;6157943;23;20176;-79
2020/12/24 07:14:28;;;;;;;1.98;0.60;;;11.40;99.90;;;;;;6154454;23;20261;-79
2020/12/24 07:16:56;;;;;;;1.40;0.60;;;11.40;99.90;;;;;;6181068;23;20149;-78
2020/12/24 07:19:23;;;;;;;4.88;0.60;;;11.40;99.90;;;;;;6156090;23;20197;-79
2020/12/24 07:21:53;;;;;;;2.33;0.50;;;11.40;99.90;;;;;;6158330;23;20172;-79
2020/12/24 07:24:31;;;;;;;2.55;0.60;;;11.40;99.90;;;;;;6188804;23;20169;-79
2020/12/24 07:27:02;;;;;;;1.67;0.50;;;11.40;99.90;;;;;;6189610;23;20217;-79
2020/12/24 07:29:29;;;;;;;1.73;0.75;;;11.40;99.90;;;;;;6137168;23;20154;-78
2020/12/24 07:31:59;;;;;;;2.08;0.65;;;11.40;99.90;;;;;;6188469;23;20173;-78
2020/12/24 07:34:27;;;;;;;1.90;0.60;;;11.40;99.90;;;;;;6162588;23;20172;-79
2020/12/24 07:36:53;;;;;;;2.65;0.50;;;11.40;99.90;;;;;;6164960;23;20232;-79
2020/12/24 07:39:22;;;;;;;1.60;0.50;;;11.40;99.90;;;;;;6190489;23;20145;-78
2020/12/24 07:41:48;;;;;;;2.60;0.60;;;11.40;99.90;;;;;;6137612;23;21124;-78
2020/12/24 07:44:18;;;;;;;1.40;0.50;;;11.40;99.90;;;;;;6133116;23;20189;-78
2020/12/24 07:46:47;;;;;;;1.13;0.50;;;11.40;99.90;;;;;;6158479;23;20137;-78
2020/12/24 07:49:15;;;;;;;2.00;0.55;;;11.40;99.90;;;;;;6183160;23;20196;-79
2020/12/24 07:51:42;;;;;;;1.10;0.47;;;11.40;99.90;;;;;;6183902;23;20142;-79
2020/12/24 07:54:15;;;;;;;1.27;0.50;;;11.40;99.90;;;;;;6133166;23;20611;-79
2020/12/24 07:56:45;;;;;;;3.08;0.50;;;11.40;99.90;;;;;;6133702;23;20154;-80
2020/12/24 07:59:16;;;;;;;2.08;0.40;;;11.40;99.90;;;;;;6183907;23;20210;-79
2020/12/24 08:01:42;;;;;;;1.27;0.50;;;11.40;99.90;;;;;;6158416;23;20134;-79
2020/12/24 08:04:07;;;;;;;1.50;0.60;;;11.40;99.90;;;;;;6183921;23;20256;-79
2020/12/24 08:06:34;;;;;;;1.03;0.63;;;11.40;99.90;;;;;;6133516;23;20682;-79
2020/12/24 08:09:14;;;;;;;1.00;0.40;;;11.40;99.90;;;;;;6157181;23;20537;-79
2020/12/24 08:11:53;;;;;;;2.75;0.50;;;11.40;99.90;;;;;;6157393;23;20169;-79
2020/12/24 08:14:27;;;;;;;1.45;0.40;;;11.40;99.90;;;;;;6156690;23;20166;-79
2020/12/24 08:17:01;;;;;;;1.17;0.40;;;11.40;99.90;;;;;;6156605;23;20610;-79
2020/12/24 08:19:39;;;;;;;1.00;0.50;;;11.40;99.90;;;;;;6130553;23;20177;-79
2020/12/24 08:22:09;;;;;;;1.35;0.50;;;11.40;99.90;;;;;;6157103;23;20208;-79
2020/12/24 08:24:38;;;;;;;2.50;0.70;;;11.40;99.90;;;;;;6132387;23;20216;-79
2020/12/24 08:27:05;;;;;;;1.10;0.43;;;11.40;99.90;;;;;;6182697;23;20479;-79
2020/12/24 08:29:31;;;;;;;1.73;0.55;;;11.40;99.90;;;;;;6155568;23;20157;-79
2020/12/24 08:31:57;;;;;;;1.00;0.40;;;11.40;99.90;;;;;;6181007;23;20289;-79
2020/12/24 08:34:23;;;;;;;1.10;0.40;;;11.40;99.90;;;;;;6156447;23;20188;-79
2020/12/24 08:36:50;;;;;;;1.33;0.50;;;11.40;99.90;;;;;;6182942;23;20595;-78
2020/12/24 08:39:18;;;;;;;1.20;0.50;;;11.50;99.90;;;;;;6182993;23;20501;-78
2020/12/24 08:41:46;;;;;;;1.25;0.47;;;11.50;99.90;;;;;;6181356;23;20146;-79
2020/12/24 08:44:18;;;;;;;1.00;0.50;;;11.40;99.90;;;;;;6182294;23;20170;-79
2020/12/24 08:47:08;;;;;;;1.77;0.70;;;11.50;99.90;;;;;;6183051;23;20142;-78
2020/12/24 08:49:42;;;;;;;1.95;0.80;;;11.50;99.90;;;;;;6182351;23;20142;-78
2020/12/24 08:52:18;;;;;;;1.30;0.60;;;11.50;99.90;;;;;;6182555;23;20146;-78
2020/12/24 08:54:57;;;;;;;1.75;0.60;;;11.60;99.90;;;;;;6156583;23;20169;-78
2020/12/24 08:57:24;;;;;;;4.20;0.60;;;11.60;99.90;;;;;;6183270;23;20145;-77
2020/12/24 08:59:58;;;;;;;1.20;0.60;;;11.70;99.90;;;;;;6133597;23;20162;-77
2020/12/24 09:02:29;;;;;;;1.92;0.70;;;11.70;99.90;;;;;;6158932;23;20164;-78
2020/12/24 09:04:59;;;;;;;4.93;0.88;;;11.80;99.90;;;;;;6187500;23;20173;-78
2020/12/24 09:07:28;;;;;;;3.83;2.05;;;11.90;99.90;;;;;;6185146;23;20134;-78
2020/12/24 09:10:27;;;;;;;1.27;0.65;;;11.90;99.90;;;;;;6158233;23;20149;-75
2020/12/24 09:12:57;;;;;;;1.33;0.70;;;11.90;99.90;;;;;;6133270;23;20149;-76
2020/12/24 09:15:28;;;;;;;1.10;0.60;;;12.00;99.90;;;;;;6158996;23;20251;-77
2020/12/24 09:17:56;;;;;;;1.30;0.70;;;12.00;99.90;;;;;;6134549;23;20181;-78
2020/12/24 09:20:23;;;;;;;1.25;0.80;;;12.10;99.90;;;;;;6165750;23;20153;-79
2020/12/24 09:23:00;;;;;;;1.40;0.73;;;12.10;99.90;;;;;;6132848;23;20631;-78
2020/12/24 09:25:46;;;;;;;2.85;0.70;;;12.10;99.90;;;;;;6183201;23;20200;-78
2020/12/24 09:28:27;;;;;;;2.20;0.80;;;12.10;99.90;;;;;;6157472;23;20150;-78
2020/12/24 09:30:59;;;;;;;1.92;0.73;;;12.10;99.90;;;;;;6156849;23;20137;-78
2020/12/24 09:33:27;;;;;;;1.13;0.70;;;12.10;99.90;;;;;;6155769;23;20201;-78
2020/12/24 09:35:53;;;;;;;2.03;0.73;;;12.00;99.90;;;;;;6156626;23;20244;-78
2020/12/24 09:38:19;;;;;;;4.68;1.33;;;12.00;99.90;;;;;;6180899;23;20168;-77
2020/12/24 09:40:45;;;;;;;3.50;1.50;;;12.00;99.90;;;;;;6156104;23;20142;-77
2020/12/24 09:43:11;;;;;;;2.70;1.15;;;11.90;99.90;;;;;;6182687;23;20176;-77
2020/12/24 09:45:38;;;;;;;3.35;1.30;;;11.80;99.90;;;;;;6156196;23;20551;-78
2020/12/24 09:48:05;;;;;;;3.65;1.40;;;11.70;99.90;;;;;;6180679;23;20142;-77
2020/12/24 09:50:31;;;;;;;1.50;1.02;;;11.60;99.90;;;;;;6153942;23;20487;-77
2020/12/24 09:52:57;;;;;;;2.40;1.40;;;11.40;99.90;;;;;;6154445;23;20486;-77
2020/12/24 09:55:23;;;;;;;1.10;0.80;;;11.30;99.90;;;;;;6153930;23;20209;-77
2020/12/24 09:57:48;;;;;;;1.70;0.90;;;11.20;99.90;;;;;;6180923;23;20688;-77
2020/12/24 10:00:18;;;;;;;1.65;0.85;;;11.10;99.90;;;;;;6181395;23;20526;-77
2020/12/24 10:02:44;;;;;;;1.75;0.80;;;10.90;99.90;;;;;;6130773;23;20233;-76
2020/12/24 10:05:10;;;;;;;1.80;0.60;;;10.80;99.90;;;;;;6129721;23;20240;-77
2020/12/24 10:07:36;;;;;;;1.53;0.80;;;10.70;99.90;;;;;;6153505;23;21267;-76
2020/12/24 10:10:02;;;;;;;1.20;0.70;;;10.60;99.90;;;;;;6129262;23;20169;-77
2020/12/24 10:12:28;;;;;;;1.10;0.50;;;10.50;99.90;;;;;;6129290;23;20683;-77
2020/12/24 10:14:55;;;;;;;1.40;0.60;;;10.40;99.90;;;;;;6154892;23;20169;-77
2020/12/24 10:17:24;;;;;;;1.05;0.60;;;10.30;99.90;;;;;;6154843;23;20630;-77
2020/12/24 10:19:56;;;;;;;1.80;0.50;;;10.20;99.90;;;;;;6155482;23;20134;-76
2020/12/24 10:22:23;;;;;;;1.00;0.55;;;10.20;99.90;;;;;;6130466;23;20160;-77
2020/12/24 10:24:49;;;;;;;0.90;0.40;;;10.10;99.90;;;;;;6155233;23;20658;-76
2020/12/24 10:27:14;;;;;;;0.97;0.40;;;10.10;99.90;;;;;;6154913;23;20149;-76
2020/12/24 10:29:41;;;;;;;0.90;0.50;;;10.00;99.90;;;;;;6181014;23;20552;-77
2020/12/24 10:32:07;;;;;;;1.10;0.40;;;10.00;99.90;;;;;;6154898;23;20580;-76
2020/12/24 10:34:33;;;;;;;1.00;0.50;;;9.90;99.90;;;;;;6093497;23;652983;-81
2020/12/24 10:37:01;;;;;;;1.10;0.50;;;9.90;99.90;;;;;;6064279;23;20152;-80
2020/12/24 10:39:38;;;;;;;1.10;0.60;;;9.90;99.90;;;;;;6064859;23;21023;-81
2020/12/24 10:42:50;;;;;;;;;;;;;;;;;;;;;
2020/12/24 10:45:17;;;;;;;0.90;0.50;;;9.70;99.90;;;;;;6065008;23;20176;-81
2020/12/24 10:47:49;;;;;;;1.05;0.60;;;9.70;99.90;;;;;;6016139;23;20788;-80
2020/12/24 10:50:18;;;;;;;1.08;0.50;;;9.70;99.90;;;;;;6039721;23;20181;-80
2020/12/24 10:52:45;;;;;;;0.90;0.40;;;9.70;99.90;;;;;;6040082;23;20157;-80
2020/12/24 10:55:50;;;;;;;1.00;0.47;;;9.70;99.90;;;;;;6041582;23;20195;-81
2020/12/24 10:58:36;;;;;;;0.90;0.50;;;9.70;99.90;;;;;;6065306;23;20219;-80
2020/12/24 11:01:46;;;;;;;1.00;0.50;;;9.60;99.90;;;;;;6065785;23;20133;-80
2020/12/24 11:04:20;;;;;;;1.02;0.60;;;9.60;99.90;;;;;;6064438;23;20180;-80
2020/12/24 11:10:43;;;;;;;1.10;0.60;;;9.60;99.90;;;;;;6040045;23;20587;-80
2020/12/24 11:13:49;;;;;;;1.10;0.57;;;9.60;99.90;;;;;;6046627;23;20568;-80
2020/12/24 11:16:37;;;;;;;0.95;0.50;;;9.60;99.90;;;;;;6065417;23;20153;-80
2020/12/24 11:19:16;;;;;;;1.08;0.60;;;9.60;99.90;;;;;;6045015;23;20168;-80
2020/12/24 11:22:17;;;;;;;0.90;0.40;;;9.60;99.90;;;;;;6065536;23;20591;-81
2020/12/24 11:25:12;;;;;;;;;;;;;;;;;;;;;
2020/12/24 11:27:49;;;;;;;1.10;0.60;;;9.50;99.90;;;;;;6064498;23;20176;-79
2020/12/24 11:30:47;;;;;;;2.10;0.50;;;9.60;99.90;;;;;;6039835;23;20172;-79
2020/12/24 11:33:26;;;;;;;0.90;0.50;;;9.50;99.90;;;;;;6040306;23;20156;-79
2020/12/24 11:36:04;;;;;;;0.90;0.40;;;9.50;99.90;;;;;;6062756;23;20156;-78
2020/12/24 11:38:30;;;;;;;1.73;0.68;;;9.50;99.90;;;;;;6064709;23;20168;-78
2020/12/24 11:40:56;;;;;;;1.13;0.63;;;9.50;99.90;;;;;;6064934;23;20144;-78
2020/12/24 11:43:25;;;;;;;1.00;0.50;;;9.50;99.90;;;;;;6065323;23;20541;-78
2020/12/24 11:45:50;;;;;;;1.00;0.63;;;9.50;99.90;;;;;;6065472;23;20666;-78
2020/12/24 11:48:16;;;;;;;1.27;0.70;;;9.40;99.90;;;;;;6064351;23;20847;-77
2020/12/24 11:50:42;;;;;;;1.20;0.70;;;9.40;99.90;;;;;;6063394;23;20612;-77
2020/12/24 11:53:08;;;;;;;1.87;0.80;;;9.40;99.90;;;;;;6039654;23;21094;-77
2020/12/24 11:55:34;;;;;;;1.00;0.50;;;9.40;99.90;;;;;;6065541;23;20576;-77
2020/12/24 11:58:03;;;;;;;1.67;0.90;;;9.40;99.90;;;;;;6070412;23;20148;-80
2020/12/24 12:03:40;;;;;;;1.35;0.82;;;9.30;99.90;;;;;;6065368;23;20464;-81
2020/12/24 12:06:19;;;;;;;1.10;0.70;;;9.30;99.90;;;;;;6065645;23;20623;-81
2020/12/24 12:09:14;;;;;;;1.30;1.00;;;9.30;99.90;;;;;;6064635;23;20559;-81
2020/12/24 12:13:02;;;;;;;1.15;0.80;;;9.30;99.90;;;;;;6065698;23;20259;-81
2020/12/24 12:15:55;;;;;;;1.50;1.20;;;9.20;99.90;;;;;;6065597;23;20213;-81
2020/12/24 12:18:26;;;;;;;2.10;1.17;;;9.20;99.90;;;;;;6064552;23;20160;-81
2020/12/24 12:21:00;;;;;;;1.70;1.58;;;9.10;99.90;;;;;;6040303;23;20518;-80
2020/12/24 12:23:40;;;;;;;2.72;2.53;;;9.10;99.90;;;;;;6065351;23;20137;-80
2020/12/24 12:26:11;;;;;;;2.88;2.60;;;9.00;99.90;;;;;;6065439;23;20257;-80
2020/12/24 12:28:56;;;;;;;;;;;;;;;;;;;;;
2020/12/24 12:31:27;;;;;;;4.68;4.28;;;8.90;99.90;;;;;;6065841;23;20634;-82
2020/12/24 12:34:03;;;;;;;5.53;4.97;;;8.90;99.90;;;;;;6069611;23;20184;-82
2020/12/24 12:37:08;;;;;;;7.32;5.95;;;8.90;99.90;;;;;;6062029;23;20156;-82
2020/12/24 12:39:57;;;;;;;6.00;5.45;;;8.90;99.90;;;;;;6065055;23;20602;-82
2020/12/24 12:42:41;;;;;;;5.85;5.35;;;8.80;99.90;;;;;;6040273;23;20418;-81
2020/12/24 12:45:33;;;;;;;7.25;6.55;;;8.80;99.90;;;;;;6064805;23;20172;-81
2020/12/24 12:49:03;;;;;;;9.02;7.38;;;8.70;99.90;;;;;;6056486;23;20541;-81
2020/12/24 12:51:39;;;;;;;6.95;5.63;;;8.60;99.90;;;;;;6051264;23;20153;-80
2020/12/24 12:54:32;;;;;;;9.77;8.60;;;8.60;99.90;;;;;;6063668;23;20215;-81
2020/12/24 12:57:39;;;;;;;8.85;7.95;;;8.50;99.90;;;;;;6063336;23;20227;-81
2020/12/24 13:00:21;;;;;;;8.45;7.55;;;8.50;99.90;;;;;;6064562;23;20133;-81
2020/12/24 13:02:58;;;;;;;7.78;6.97;;;8.40;99.90;;;;;;6064998;23;20610;-81
2020/12/24 13:05:58;;;;;;;8.10;6.90;;;8.40;99.90;;;;;;6065343;23;20263;-82
2020/12/24 13:08:58;;;;;;;6.22;5.45;;;8.30;99.90;;;;;;6062190;23;20160;-83
2020/12/24 13:12:07;;;;;;;6.30;5.70;;;8.30;99.90;;;;;;6069475;23;20152;-83
2020/12/24 13:14:52;;;;;;;;;;;;;;;;;;;;;
2020/12/24 13:17:44;;;;;;;5.45;4.95;;;8.20;99.90;;;;;;6064227;23;20196;-81
2020/12/24 13:20:11;;;;;;;6.87;6.13;;;8.20;99.90;;;;;;6064942;23;20149;-81
2020/12/24 13:22:44;;;;;;;5.57;5.07;;;8.20;99.90;;;;;;6065309;23;20854;-81
2020/12/24 13:25:15;;;;;;;4.95;3.75;;;8.10;99.90;;;;;;6064947;23;20560;-81
2020/12/24 13:27:55;;;;;;;3.97;3.58;;;8.10;99.90;;;;;;6064416;23;20231;-81
2020/12/24 13:30:29;;;;;;;2.90;2.30;;;8.10;99.90;;;;;;6064897;23;20557;-81
2020/12/24 13:32:55;;;;;;;2.08;1.88;;;8.10;99.90;;;;;;6063207;23;20133;-81
2020/12/24 13:35:27;;;;;;;2.22;1.80;;;8.10;99.90;;;;;;6064613;23;20515;-81
2020/12/24 13:37:57;;;;;;;2.28;1.95;;;8.10;99.90;;;;;;6063972;23;20488;-82
2020/12/24 13:40:23;;;;;;;4.22;1.65;;;8.10;99.90;;;;;;6064334;23;20156;-81
2020/12/24 13:42:51;;;;;;;1.83;1.30;;;8.10;99.90;;;;;;6065029;23;20494;-84
2020/12/24 13:45:17;;;;;;;2.47;1.87;;;8.20;99.90;;;;;;6064643;23;20179;-84
2020/12/24 13:47:44;;;;;;;1.50;1.00;;;8.20;99.90;;;;;;6070632;23;20537;-83
2020/12/24 13:50:12;;;;;;;1.40;1.05;;;8.20;99.90;;;;;;6064569;23;20148;-81
2020/12/24 13:52:37;;;;;;;1.70;1.25;;;8.20;99.90;;;;;;6039226;23;20203;-80
2020/12/24 13:55:04;;;;;;;1.43;1.10;;;8.20;99.90;;;;;;6064858;23;20176;-82
2020/12/24 13:57:30;;;;;;;2.15;1.48;;;8.20;99.90;;;;;;6064071;23;20145;-82
2020/12/24 13:59:57;;;;;;;1.77;1.17;;;8.20;99.90;;;;;;6039335;23;20622;-82
2020/12/24 14:02:28;;;;;;;2.25;1.52;;;8.20;99.90;;;;;;6064370;23;20148;-81
2020/12/24 14:04:56;;;;;;;1.60;1.20;;;8.20;99.90;;;;;;6064462;23;20176;-81
2020/12/24 14:07:22;;;;;;;2.70;1.50;;;8.20;99.90;;;;;;6063890;23;20151;-81
2020/12/24 14:09:48;;;;;;;2.40;1.20;;;8.20;99.90;;;;;;6064515;23;20149;-81
2020/12/24 14:12:14;;;;;;;3.30;1.30;;;8.20;99.90;;;;;;6064225;23;20548;-81
2020/12/24 14:14:40;;;;;;;3.77;2.20;;;8.20;99.90;;;;;;6064183;23;20572;-80
2020/12/24 14:17:06;;;;;;;3.33;1.77;;;8.20;99.90;;;;;;6064355;23;20564;-79
2020/12/24 14:19:32;;;;;;;3.40;1.50;;;8.20;99.90;;;;;;6038455;23;20521;-79
2020/12/24 14:21:59;;;;;;;2.10;1.58;;;8.20;99.90;;;;;;6064309;23;20156;-79
2020/12/24 14:24:28;;;;;;;2.17;1.92;;;8.30;99.90;;;;;;6066574;23;20220;-83
2020/12/24 14:26:55;;;;;;;2.95;1.83;;;8.30;99.90;;;;;;6047569;23;20173;-83
2020/12/24 14:29:22;;;;;;;3.40;2.00;;;8.30;99.90;;;;;;6088409;23;20140;-82
2020/12/24 14:31:48;;;;;;;1.77;1.67;;;8.30;99.90;;;;;;6091606;23;20144;-82
2020/12/24 14:34:13;;;;;;;3.70;2.53;;;8.40;99.90;;;;;;6089709;23;20176;-81
2020/12/24 14:36:39;;;;;;;2.47;1.67;;;8.40;99.90;;;;;;6091589;23;20184;-81
2020/12/24 14:39:05;;;;;;;5.07;1.80;;;8.40;99.90;;;;;;6081185;23;20540;-80
2020/12/24 14:41:32;;;;;;;2.83;1.98;;;8.40;99.90;;;;;;6063829;23;20857;-81
2020/12/24 14:43:58;;;;;;;3.40;2.07;;;8.40;99.90;;;;;;6063197;23;20184;-81
2020/12/24 14:46:24;;;;;;;3.38;2.15;;;8.40;99.90;;;;;;6021408;23;20595;-81
2020/12/24 14:48:50;;;;;;;2.10;1.87;;;8.40;99.90;;;;;;6077815;23;20152;-81
2020/12/24 14:51:16;;;;;;;6.37;2.67;;;8.50;99.90;;;;;;6075922;23;20574;-82
2020/12/24 14:53:41;;;;;;;3.00;2.30;;;8.50;99.90;;;;;;6067834;23;20141;-81
2020/12/24 14:56:07;;;;;;;4.30;2.23;;;8.50;99.90;;;;;;6064265;23;20160;-81
2020/12/24 14:58:34;;;;;;;4.40;2.28;;;8.50;99.90;;;;;;6063309;23;20156;-80
2020/12/24 15:00:59;;;;;;;3.00;2.70;;;8.50;99.90;;;;;;6066206;23;20509;-79
2020/12/24 15:03:25;;;;;;;4.87;2.00;;;8.50;99.90;;;;;;6068882;23;20145;-80
2020/12/24 15:05:51;;;;;;;2.27;2.07;;;8.50;99.90;;;;;;6065632;23;21260;-80
2020/12/24 15:08:17;;;;;;;3.10;2.80;;;8.50;99.90;;;;;;6064997;23;20529;-80
2020/12/24 15:10:43;;;;;;;3.00;2.23;;;8.50;99.90;;;;;;6040173;23;20153;-81
2020/12/24 15:13:08;;;;;;;6.93;3.00;;;8.50;99.90;;;;;;6065117;23;20179;-81
2020/12/24 15:15:34;;;;;;;6.00;4.40;;;8.50;99.90;;;;;;6040281;23;20172;-81
2020/12/24 15:18:00;;;;;;;4.53;3.50;;;8.50;99.90;;;;;;6065243;23;20540;-80
2020/12/24 15:20:26;;;;;;;4.97;3.30;;;8.50;99.90;;;;;;6065321;23;20148;-81
2020/12/24 15:22:53;;;;;;;7.07;3.20;;;8.50;99.90;;;;;;6040201;23;20208;-81
2020/12/24 15:25:20;;;;;;;4.13;3.33;;;8.50;99.90;;;;;;6039813;23;20651;-81
2020/12/24 15:27:46;;;;;;;4.22;3.10;;;8.50;99.90;;;;;;6064338;23;20145;-81
2020/12/24 15:30:11;;;;;;;6.17;3.90;;;8.50;99.90;;;;;;6039601;23;20176;-81
2020/12/24 15:32:37;;;;;;;7.93;3.90;;;8.50;99.90;;;;;;6065714;23;20517;-82
2020/12/24 15:35:04;;;;;;;6.57;3.50;;;8.50;99.90;;;;;;6065102;23;20647;-81
2020/12/24 15:37:30;;;;;;;4.28;2.80;;;8.50;99.90;;;;;;6040022;23;20179;-82
2020/12/24 15:39:56;;;;;;;3.50;3.13;;;8.50;99.90;;;;;;6068178;23;20622;-82
2020/12/24 15:42:22;;;;;;;4.33;2.60;;;8.50;99.90;;;;;;6065171;23;20910;-81
2020/12/24 15:44:47;;;;;;;3.93;3.10;;;8.50;99.90;;;;;;6039607;23;20600;-82
2020/12/24 15:47:13;;;;;;;8.60;2.30;;;8.50;99.90;;;;;;6064904;23;20553;-82
2020/12/24 15:49:39;;;;;;;3.97;2.50;;;8.50;99.90;;;;;;6039791;23;20592;-82
2020/12/24 15:52:05;;;;;;;5.38;3.55;;;8.50;99.90;;;;;;6039955;23;20156;-82
2020/12/24 15:54:31;;;;;;;3.50;3.00;;;8.60;99.90;;;;;;6064377;23;20603;-82
2020/12/24 15:56:58;;;;;;;3.03;2.58;;;8.50;99.90;;;;;;6065780;23;20149;-83
2020/12/24 15:59:25;;;;;;;6.03;3.05;;;8.60;99.90;;;;;;6064400;23;20510;-83
2020/12/24 16:01:51;;;;;;;7.82;2.80;;;8.50;99.90;;;;;;6039757;23;20148;-83
2020/12/24 16:04:18;;;;;;;4.82;3.03;;;8.60;99.90;;;;;;6039518;23;20219;-83
2020/12/24 16:06:44;;;;;;;4.82;2.22;;;8.50;99.90;;;;;;6016109;23;20243;-83
2020/12/24 16:09:10;;;;;;;4.35;2.60;;;8.50;99.90;;;;;;6015020;23;20156;-82
2020/12/24 16:11:36;;;;;;;6.10;2.87;;;8.50;99.90;;;;;;6039309;23;20168;-83
2020/12/24 16:14:04;;;;;;;3.30;2.80;;;8.50;99.90;;;;;;6039902;23;20569;-82
2020/12/24 16:16:30;;;;;;;8.80;2.78;;;8.60;99.90;;;;;;6069385;23;20175;-82
2020/12/24 16:18:56;;;;;;;4.50;3.20;;;8.60;99.90;;;;;;6039102;23;20575;-80
2020/12/24 16:21:23;;;;;;;3.13;2.63;;;8.60;99.90;;;;;;6064530;23;20537;-81
2020/12/24 16:23:49;;;;;;;4.35;3.08;;;8.50;99.90;;;;;;6039093;23;20596;-81
2020/12/24 16:26:15;;;;;;;3.00;2.57;;;8.50;99.90;;;;;;6065198;23;20187;-81
2020/12/24 16:28:41;;;;;;;4.63;2.43;;;8.60;99.90;;;;;;6064534;23;21054;-81
2020/12/24 16:31:07;;;;;;;4.10;2.43;;;8.60;99.90;;;;;;6064915;23;20148;-81
2020/12/24 16:33:32;;;;;;;5.63;3.13;;;8.60;99.90;;;;;;6040003;23;20563;-81
2020/12/24 16:35:58;;;;;;;11.00;3.20;;;8.60;99.90;;;;;;6065300;23;20592;-81
2020/12/24 16:38:25;;;;;;;3.03;2.10;;;8.60;99.90;;;;;;6038983;23;20157;-81
2020/12/24 16:40:50;;;;;;;4.60;2.60;;;8.60;99.90;;;;;;6064455;23;20594;-80
2020/12/24 16:43:16;;;;;;;4.83;2.90;;;8.60;99.90;;;;;;6016646;23;20617;-81
2020/12/24 16:45:42;;;;;;;4.60;2.73;;;8.60;99.90;;;;;;6064584;23;20600;-81
2020/12/24 16:48:08;;;;;;;4.30;2.10;;;8.60;99.90;;;;;;6064205;23;20532;-81
2020/12/24 16:50:34;;;;;;;3.27;2.60;;;8.60;99.90;;;;;;6064457;23;20208;-80
2020/12/24 16:53:00;;;;;;;6.80;2.80;;;8.70;99.90;;;;;;6068860;23;20529;-80
2020/12/24 16:55:27;;;;;;;4.35;3.00;;;8.70;99.90;;;;;;6039635;23;20179;-79
2020/12/24 16:57:53;;;;;;;5.40;2.30;;;8.70;99.90;;;;;;6038918;23;20164;-80
2020/12/24 17:00:19;;;;;;;4.40;2.70;;;8.70;99.90;;;;;;6064366;23;20529;-80
2020/12/24 17:02:45;;;;;;;4.30;3.03;;;8.70;99.90;;;;;;6039465;23;20583;-79
2020/12/24 17:05:10;;;;;;;6.63;2.97;;;8.70;99.90;;;;;;6064293;23;20593;-80
2020/12/24 17:07:37;;;;;;;7.22;2.70;;;8.70;99.90;;;;;;6063877;23;20622;-80
2020/12/24 17:10:03;;;;;;;5.80;2.30;;;8.70;99.90;;;;;;6039825;23;20518;-80
2020/12/24 17:12:29;;;;;;;8.50;2.70;;;8.70;99.90;;;;;;6064882;23;20176;-80
2020/12/24 17:14:55;;;;;;;5.30;3.03;;;8.70;99.90;;;;;;6064430;23;20172;-79
2020/12/24 17:17:21;;;;;;;3.97;2.80;;;8.70;99.90;;;;;;6038476;23;20168;-79
2020/12/24 17:19:47;;;;;;;4.63;2.23;;;8.70;99.90;;;;;;6064482;23;20239;-80
2020/12/24 17:22:12;;;;;;;7.40;2.63;;;8.70;99.90;;;;;;6063521;23;21069;-80
2020/12/24 17:24:38;;;;;;;4.10;2.17;;;8.70;99.90;;;;;;6038958;23;20220;-80
2020/12/24 17:27:04;;;;;;;6.07;2.73;;;8.70;99.90;;;;;;6038978;23;20587;-79
2020/12/24 17:29:30;;;;;;;5.07;2.42;;;8.70;99.90;;;;;;6065201;23;20533;-79
2020/12/24 17:31:56;;;;;;;5.43;3.20;;;8.70;99.90;;;;;;6067201;23;20570;-79
2020/12/24 17:34:22;;;;;;;9.23;2.90;;;8.70;99.90;;;;;;6063969;23;20179;-79
2020/12/24 17:36:51;;;;;;;8.50;2.63;;;8.60;99.90;;;;;;6038463;23;20529;-79
2020/12/24 17:39:20;;;;;;;5.53;3.50;;;8.60;99.90;;;;;;6014907;23;20619;-80
2020/12/24 17:41:47;;;;;;;6.95;2.65;;;8.60;99.90;;;;;;6063967;23;20152;-80
2020/12/24 17:44:13;;;;;;;5.75;2.28;;;8.70;99.90;;;;;;6064559;23;20259;-79
2020/12/24 17:46:47;;;;;;;4.00;1.95;;;8.60;99.90;;;;;;6038979;23;20172;-82
2020/12/24 17:49:13;;;;;;;6.40;2.90;;;8.60;99.90;;;;;;6038704;23;20133;-80
2020/12/24 17:51:39;;;;;;;3.83;2.50;;;8.60;99.90;;;;;;6037864;23;20186;-79
2020/12/24 17:54:06;;;;;;;7.73;3.00;;;8.60;99.90;;;;;;6038577;23;20175;-79
2020/12/24 17:56:32;;;;;;;5.55;2.30;;;8.60;99.90;;;;;;6063761;23;20540;-79
2020/12/24 17:58:58;;;;;;;4.28;2.58;;;8.60;99.90;;;;;;6038020;23;20575;-79
2020/12/24 18:01:27;;;;;;;6.10;2.70;;;8.60;99.90;;;;;;6038035;23;20155;-79
2020/12/24 18:03:53;;;;;;;4.70;3.00;;;8.60;99.90;;;;;;6038848;23;20621;-79
2020/12/24 18:06:21;;;;;;;6.57;1.73;;;8.60;99.90;;;;;;6063656;23;20232;-79
2020/12/24 18:08:47;;;;;;;3.45;1.30;;;8.60;99.90;;;;;;6068691;23;20536;-79